Servet Ana — TCMF7 — position and weather

sailwx.info

Track history (hours):
 
Tides and Currents Weather Stations Pressure Air Temp Water Temp Dewpoint Dewpoint Depression Visibility Wind Speed Wind Dir Waves Ship Positions

Servet Ana

Last reported at 2014-Aug-28 19:05 UTC. Time now 2014-Aug-30 04:30 UTC.
Position N 38°47' W 009°51'.

Length 178 m; draft 10 m.

Type: Ship. MMSI: 271042643.

Date/timePositionNaut miles runAvg speedWind from/ knotsBaromVisibWave heightAir tempDewpointWater temp
2014-Aug-28 19:05N 38°47' W 009°51'611.6
2014-Aug-28 18:33N 38°41' W 009°51'2311.6
2014-Aug-28 16:33N 38°18' W 009°46'6411.8
2014-Aug-28 11:09N 37°16' W 009°27'711.7
2014-Aug-28 10:33N 37°09' W 009°24'1111.4
2014-Aug-28 09:33N 36°58' W 009°20'1110.6
2014-Aug-28 08:34N 36°49' W 009°14'1111.2
2014-Aug-28 07:32N 36°43' W 009°02'1211.9
2014-Aug-28 06:34N 36°40' W 008°48'1212.2
2014-Aug-28 05:34N 36°36' W 008°34'1212.4
2014-Aug-28 04:34N 36°32' W 008°20'1212.1
2014-Aug-28 03:33N 36°28' W 008°05'1312.4
2014-Aug-28 02:30N 36°24' W 007°50'1412.3
2014-Aug-28 01:24N 36°19' W 007°34'1012.3
2014-Aug-28 00:33N 36°16' W 007°22'9910.8
2014-Aug-27 15:22N 36°01' W 005°20'15411.9
2014-Aug-27 02:24N 36°26' W 002°12'2512.7
2014-Aug-27 00:26N 36°31' W 001°41'3612.2
2014-Aug-26 21:27N 36°37' W 000°57'1112.5
2014-Aug-26 20:33N 36°39' W 000°43'1312.6
2014-Aug-26 19:32N 36°41' W 000°27'1212.3
2014-Aug-26 18:33N 36°43' W 000°12'1312.4
2014-Aug-26 17:33N 36°45' E 000°03'1212.3
2014-Aug-26 16:33N 36°47' E 000°18'1211.9
2014-Aug-26 15:33N 36°49' E 000°33'1312.5
2014-Aug-26 14:33N 36°52' E 000°48'1212.5
2014-Aug-26 13:33N 36°53' E 001°04'1312.7
2014-Aug-26 12:33N 36°56' E 001°19'1312.6
2014-Aug-26 11:33N 36°58' E 001°35'1212.6
2014-Aug-26 10:33N 36°60' E 001°50'1312.7
2014-Aug-26 09:33N 37°02' E 002°06'1912.6
2014-Aug-26 08:03N 37°05' E 002°29'812.4
2014-Aug-26 07:26N 37°06' E 002°39'1212.0
2014-Aug-26 06:27N 37°08' E 002°53'1011.7
2014-Aug-26 05:33N 37°10' E 003°06'1212.1
2014-Aug-26 04:33N 37°10' E 003°21'1312.5
2014-Aug-26 03:33N 37°12' E 003°37'1312.3
2014-Aug-26 02:29N 37°13' E 003°54'1212.6
2014-Aug-26 01:33N 37°14' E 004°08'1212.0
2014-Aug-26 00:33N 37°16' E 004°23'1212.2
2014-Aug-25 23:33N 37°17' E 004°38'1212.4
2014-Aug-25 22:34N 37°18' E 004°54'1312.7
2014-Aug-25 21:33N 37°19' E 005°10'1312.8
2014-Aug-25 20:33N 37°21' E 005°26'1312.9
2014-Aug-25 19:34N 37°22' E 005°42'1313.3
2014-Aug-25 18:33N 37°23' E 005°58'1513.1
2014-Aug-25 17:23N 37°25' E 006°18'1313.1
2014-Aug-25 16:21N 37°26' E 006°35'11312.6
2014-Aug-25 07:24N 37°38' E 008°57'2311.7
2014-Aug-25 05:25N 37°38' E 009°26'1011.8
2014-Aug-25 04:33N 37°38' E 009°39'2411.8
2014-Aug-25 02:33N 37°39' E 010°09'3511.5
2014-Aug-24 23:34N 37°31' E 010°51'7612.0
2014-Aug-24 17:14N 37°02' E 012°19'812.0
2014-Aug-24 16:33N 36°59' E 012°28'1212.3
2014-Aug-24 15:33N 36°54' E 012°42'1212.1
2014-Aug-24 14:33N 36°49' E 012°56'1212.5
2014-Aug-24 13:34N 36°44' E 013°10'1312.6
2014-Aug-24 12:33N 36°38' E 013°24'1212.1
2014-Aug-24 11:33N 36°33' E 013°38'1212.0
2014-Aug-24 10:34N 36°29' E 013°52'1212.0
2014-Aug-24 09:34N 36°24' E 014°05'1212.1
2014-Aug-24 08:33N 36°19' E 014°19'1212.1
2014-Aug-24 07:34N 36°16' E 014°34'1212.4
2014-Aug-24 06:34N 36°13' E 014°49'1312.6
2014-Aug-24 05:34N 36°10' E 015°04'1312.7
2014-Aug-24 04:34N 36°07' E 015°19'31612.6
2014-Aug-23 03:32N 34°47' E 021°35'1312.6
2014-Aug-23 02:32N 34°44' E 021°50'32612.3
2014-Aug-22 00:08N 33°22' E 028°11'2112.4
2014-Aug-21 22:24N 33°17' E 028°35'1511.7
2014-Aug-21 21:06N 33°13' E 028°53'4312.0
2014-Aug-21 17:34N 33°02' E 029°42'1412.4
2014-Aug-21 16:28N 32°59' E 029°58'8912.4
2014-Aug-21 09:20N 32°37' E 031°40'  
Track history (hours):
 
Tides and Currents Weather Stations Pressure Air Temp Water Temp Dewpoint Dewpoint Depression Visibility Wind Speed Wind Dir Waves Ship Positions

Servet Ana

Last reported at 2014-Aug-28 19:05 UTC. Time now 2014-Aug-30 04:30 UTC.
Position N 38°47' W 009°51'.

Length 178 m; draft 10 m.

Type: Ship. MMSI: 271042643.

Date/timePositionNaut miles runAvg speedWind from/ knotsBaromVisibWave heightAir tempDewpointWater temp
2014-Aug-28 19:05N 38°47' W 009°51'611.6
2014-Aug-28 18:33N 38°41' W 009°51'2311.6
2014-Aug-28 16:33N 38°18' W 009°46'6411.8
2014-Aug-28 11:09N 37°16' W 009°27'711.7
2014-Aug-28 10:33N 37°09' W 009°24'1111.4
2014-Aug-28 09:33N 36°58' W 009°20'1110.6
2014-Aug-28 08:34N 36°49' W 009°14'1111.2
2014-Aug-28 07:32N 36°43' W 009°02'1211.9
2014-Aug-28 06:34N 36°40' W 008°48'1212.2
2014-Aug-28 05:34N 36°36' W 008°34'1212.4
2014-Aug-28 04:34N 36°32' W 008°20'1212.1
2014-Aug-28 03:33N 36°28' W 008°05'1312.4
2014-Aug-28 02:30N 36°24' W 007°50'1412.3
2014-Aug-28 01:24N 36°19' W 007°34'1012.3
2014-Aug-28 00:33N 36°16' W 007°22'9910.8
2014-Aug-27 15:22N 36°01' W 005°20'15411.9
2014-Aug-27 02:24N 36°26' W 002°12'2512.7
2014-Aug-27 00:26N 36°31' W 001°41'3612.2
2014-Aug-26 21:27N 36°37' W 000°57'1112.5
2014-Aug-26 20:33N 36°39' W 000°43'1312.6
2014-Aug-26 19:32N 36°41' W 000°27'1212.3
2014-Aug-26 18:33N 36°43' W 000°12'1312.4
2014-Aug-26 17:33N 36°45' E 000°03'1212.3
2014-Aug-26 16:33N 36°47' E 000°18'1211.9
2014-Aug-26 15:33N 36°49' E 000°33'1312.5
2014-Aug-26 14:33N 36°52' E 000°48'1212.5
2014-Aug-26 13:33N 36°53' E 001°04'1312.7
2014-Aug-26 12:33N 36°56' E 001°19'1312.6
2014-Aug-26 11:33N 36°58' E 001°35'1212.6
2014-Aug-26 10:33N 36°60' E 001°50'1312.7
2014-Aug-26 09:33N 37°02' E 002°06'1912.6
2014-Aug-26 08:03N 37°05' E 002°29'812.4
2014-Aug-26 07:26N 37°06' E 002°39'1212.0
2014-Aug-26 06:27N 37°08' E 002°53'1011.7
2014-Aug-26 05:33N 37°10' E 003°06'1212.1
2014-Aug-26 04:33N 37°10' E 003°21'1312.5
2014-Aug-26 03:33N 37°12' E 003°37'1312.3
2014-Aug-26 02:29N 37°13' E 003°54'1212.6
2014-Aug-26 01:33N 37°14' E 004°08'1212.0
2014-Aug-26 00:33N 37°16' E 004°23'1212.2
2014-Aug-25 23:33N 37°17' E 004°38'1212.4
2014-Aug-25 22:34N 37°18' E 004°54'1312.7
2014-Aug-25 21:33N 37°19' E 005°10'1312.8
2014-Aug-25 20:33N 37°21' E 005°26'1312.9
2014-Aug-25 19:34N 37°22' E 005°42'1313.3
2014-Aug-25 18:33N 37°23' E 005°58'1513.1
2014-Aug-25 17:23N 37°25' E 006°18'1313.1
2014-Aug-25 16:21N 37°26' E 006°35'11312.6
2014-Aug-25 07:24N 37°38' E 008°57'2311.7
2014-Aug-25 05:25N 37°38' E 009°26'1011.8
2014-Aug-25 04:33N 37°38' E 009°39'2411.8
2014-Aug-25 02:33N 37°39' E 010°09'3511.5
2014-Aug-24 23:34N 37°31' E 010°51'7612.0
2014-Aug-24 17:14N 37°02' E 012°19'812.0
2014-Aug-24 16:33N 36°59' E 012°28'1212.3
2014-Aug-24 15:33N 36°54' E 012°42'1212.1
2014-Aug-24 14:33N 36°49' E 012°56'1212.5
2014-Aug-24 13:34N 36°44' E 013°10'1312.6
2014-Aug-24 12:33N 36°38' E 013°24'1212.1
2014-Aug-24 11:33N 36°33' E 013°38'1212.0
2014-Aug-24 10:34N 36°29' E 013°52'1212.0
2014-Aug-24 09:34N 36°24' E 014°05'1212.1
2014-Aug-24 08:33N 36°19' E 014°19'1212.1
2014-Aug-24 07:34N 36°16' E 014°34'1212.4
2014-Aug-24 06:34N 36°13' E 014°49'1312.6
2014-Aug-24 05:34N 36°10' E 015°04'1312.7
2014-Aug-24 04:34N 36°07' E 015°19'31612.6
2014-Aug-23 03:32N 34°47' E 021°35'1312.6
2014-Aug-23 02:32N 34°44' E 021°50'32612.3
2014-Aug-22 00:08N 33°22' E 028°11'2112.4
2014-Aug-21 22:24N 33°17' E 028°35'1511.7
2014-Aug-21 21:06N 33°13' E 028°53'4312.0
2014-Aug-21 17:34N 33°02' E 029°42'1412.4
2014-Aug-21 16:28N 32°59' E 029°58'8912.4
2014-Aug-21 09:20N 32°37' E 031°40'  

Dump ship's entire track history